createdAt,value
2022-11-07T00:00:58.137Z,100615.09
2022-11-07T00:03:24.443Z,100617.91
2022-11-07T00:05:50.755Z,100617.16
2022-11-07T00:08:17.070Z,100609.19
2022-11-07T00:10:43.387Z,100613.63
2022-11-07T00:13:10.228Z,100597.66
2022-11-07T00:15:36.535Z,100599.88
2022-11-07T00:18:02.854Z,100595.44
2022-11-07T00:20:29.169Z,100594.78
2022-11-07T00:22:55.491Z,100593.97
2022-11-07T00:25:21.801Z,100588.19
2022-11-07T00:27:48.121Z,100590.44
2022-11-07T00:30:14.439Z,100593.38
2022-11-07T00:32:40.760Z,100593.97
2022-11-07T00:35:07.132Z,100594.69
2022-11-07T00:37:33.543Z,100588.13
2022-11-07T00:39:59.844Z,100588.03
2022-11-07T00:42:26.153Z,100588.19
2022-11-07T00:44:52.460Z,100586.72
2022-11-07T00:47:18.780Z,100588.88
2022-11-07T00:49:45.154Z,100590.34
2022-11-07T00:52:11.465Z,100591.81
2022-11-07T00:54:37.941Z,100596.09
2022-11-07T00:57:04.251Z,100591.81
2022-11-07T00:59:30.602Z,100569.44
2022-11-07T01:01:57.068Z,100586.00
2022-11-07T01:04:42.454Z,100583.13
2022-11-07T01:07:08.777Z,100584.44
2022-11-07T01:09:35.113Z,100603.13
2022-11-07T01:12:01.430Z,100591.59
2022-11-07T01:14:27.739Z,100590.09
2022-11-07T01:16:54.040Z,100600.31
2022-11-07T01:19:20.348Z,100596.03
2022-11-07T01:21:46.661Z,100588.81
2022-11-07T01:24:13.053Z,100572.81
2022-11-07T01:26:39.532Z,100584.44
2022-11-07T01:29:05.888Z,100586.56
2022-11-07T01:31:32.229Z,100579.91
2022-11-07T01:33:58.891Z,100588.47
2022-11-07T01:36:25.213Z,100587.75
2022-11-07T01:38:51.578Z,100587.00
2022-11-07T01:41:36.242Z,100582.72
2022-11-07T01:44:08.616Z,100579.09
2022-11-07T01:46:38.858Z,100586.94
2022-11-07T01:49:07.473Z,100591.19
2022-11-07T01:51:35.305Z,100587.00
2022-11-07T01:54:01.623Z,100589.81
2022-11-07T01:56:28.255Z,100595.56
2022-11-07T01:58:55.071Z,100586.84
2022-11-07T02:01:21.412Z,100592.00
2022-11-07T02:03:47.799Z,100589.06
2022-11-07T02:06:15.015Z,100589.06
2022-11-07T02:08:42.039Z,100588.31
2022-11-07T02:11:09.643Z,100586.84
2022-11-07T02:13:35.974Z,100586.84
2022-11-07T02:16:02.467Z,100589.66
2022-11-07T02:18:28.829Z,100583.88
2022-11-07T02:20:56.290Z,100578.88
2022-11-07T02:23:26.472Z,100583.88
2022-11-07T02:25:53.094Z,100583.16
2022-11-07T02:28:19.416Z,100577.31
2022-11-07T02:30:45.738Z,100586.69
2022-11-07T02:33:19.124Z,100581.75
2022-11-07T02:35:46.011Z,100570.91
2022-11-07T02:38:13.923Z,100573.69
2022-11-07T02:40:40.265Z,100576.66
2022-11-07T02:43:06.650Z,100583.16
2022-11-07T02:45:34.688Z,100587.34
2022-11-07T02:48:01.016Z,100585.31
2022-11-07T02:50:27.381Z,100586.31
2022-11-07T02:52:53.716Z,100576.34
2022-11-07T02:55:20.038Z,100580.75
2022-11-07T02:57:46.354Z,100580.69
2022-11-07T03:00:13.072Z,100582.19
2022-11-07T03:02:39.598Z,100580.69
2022-11-07T03:05:06.131Z,100583.56
2022-11-07T03:07:32.452Z,100584.47
2022-11-07T03:09:58.794Z,100590.97
2022-11-07T03:12:25.118Z,100600.19
2022-11-07T03:14:51.460Z,100600.84
2022-11-07T03:17:17.866Z,100600.84
2022-11-07T03:19:44.180Z,100613.84
2022-11-07T03:22:10.519Z,100618.19
2022-11-07T03:24:36.839Z,100620.34
2022-11-07T03:27:03.148Z,100618.78
2022-11-07T03:29:29.455Z,100622.41
2022-11-07T03:31:55.755Z,100627.41
2022-11-07T03:34:22.079Z,100632.44
2022-11-07T03:36:48.389Z,100632.44
2022-11-07T03:39:14.712Z,100629.47
2022-11-07T03:41:41.035Z,100635.25
2022-11-07T03:44:07.348Z,100629.63
2022-11-07T03:46:33.664Z,100630.38
2022-11-07T03:49:00.036Z,100634.00
2022-11-07T03:51:26.355Z,100628.25
2022-11-07T03:53:52.660Z,100632.59
2022-11-07T03:56:18.963Z,100629.78
2022-11-07T03:58:45.286Z,100631.28
2022-11-07T04:01:13.176Z,100637.13
2022-11-07T04:03:39.506Z,100630.69
2022-11-07T04:06:05.832Z,100630.69
2022-11-07T04:08:32.152Z,100634.38
2022-11-07T04:10:58.469Z,100633.66
2022-11-07T04:13:43.661Z,100635.88
2022-11-07T04:16:28.840Z,100638.75
2022-11-07T04:18:57.965Z,100645.91
2022-11-07T04:21:24.276Z,100643.03
2022-11-07T04:23:50.592Z,100644.44
2022-11-07T04:26:35.653Z,100648.78
2022-11-07T04:29:01.981Z,100654.53
2022-11-07T04:31:28.291Z,100652.41
2022-11-07T04:33:54.609Z,100656.69
2022-11-07T04:36:20.935Z,100657.41
2022-11-07T04:38:47.256Z,100656.69
2022-11-07T04:41:17.957Z,100670.25
2022-11-07T04:43:44.273Z,100660.22
2022-11-07T04:46:10.590Z,100677.44
2022-11-07T04:48:36.921Z,100670.25
2022-11-07T04:51:03.232Z,100675.84
2022-11-07T04:53:29.553Z,100675.19
2022-11-07T04:55:55.866Z,100684.56
2022-11-07T04:58:22.180Z,100681.69
2022-11-07T05:00:48.513Z,100688.88
2022-11-07T05:03:15.112Z,100684.56
2022-11-07T05:05:41.729Z,100688.88
2022-11-07T05:08:08.312Z,100683.09
2022-11-07T05:10:34.786Z,100683.19
2022-11-07T05:13:01.108Z,100683.25
2022-11-07T05:15:27.415Z,100684.75
2022-11-07T05:17:53.729Z,100675.47
2022-11-07T05:20:33.060Z,100677.56
2022-11-07T05:23:18.819Z,100675.47
2022-11-07T05:25:46.410Z,100681.94
2022-11-07T05:28:13.359Z,100686.38
2022-11-07T05:30:41.003Z,100685.66
2022-11-07T05:33:10.234Z,100700.78
2022-11-07T05:35:36.555Z,100695.75
2022-11-07T05:38:02.867Z,100693.63
2022-11-07T05:40:29.218Z,100695.75
2022-11-07T05:42:59.014Z,100699.31
2022-11-07T05:45:25.323Z,100703.66
2022-11-07T05:47:56.683Z,100697.16
2022-11-07T05:50:23.031Z,100708.69
2022-11-07T05:52:49.387Z,100700.88
2022-11-07T05:55:15.732Z,100708.09
2022-11-07T05:57:42.052Z,100702.34
2022-11-07T06:00:08.680Z,100705.22
2022-11-07T06:02:38.523Z,100713.94
2022-11-07T06:05:05.077Z,100720.38
2022-11-07T06:07:34.735Z,100718.41
2022-11-07T06:10:01.043Z,100714.03
2022-11-07T06:12:27.361Z,100718.31
2022-11-07T06:14:53.699Z,100721.28
2022-11-07T06:17:20.008Z,100713.19
2022-11-07T06:19:46.324Z,100724.06
2022-11-07T06:22:12.641Z,100728.34
2022-11-07T06:24:38.962Z,100722.00
2022-11-07T06:27:05.292Z,100727.78
2022-11-07T06:29:31.606Z,100740.75
2022-11-07T06:31:57.929Z,100734.28
2022-11-07T06:34:24.237Z,100734.28
2022-11-07T06:37:01.596Z,100731.38
2022-11-07T06:39:29.361Z,100742.25
2022-11-07T06:41:55.703Z,100736.50
2022-11-07T06:44:22.032Z,100735.53
2022-11-07T06:46:48.358Z,100738.63
2022-11-07T06:49:15.185Z,100737.16
2022-11-07T06:51:45.302Z,100734.28
2022-11-07T06:54:14.045Z,100733.53
2022-11-07T06:56:40.421Z,100734.28
2022-11-07T06:59:06.820Z,100743.63
2022-11-07T07:01:33.207Z,100737.16
2022-11-07T07:04:00.654Z,100740.75
2022-11-07T07:06:26.988Z,100740.19
2022-11-07T07:08:53.299Z,100754.59
2022-11-07T07:11:19.631Z,100754.59
2022-11-07T07:13:45.988Z,100753.19
2022-11-07T07:16:12.976Z,100761.75
2022-11-07T07:18:39.293Z,100761.09
2022-11-07T07:21:12.212Z,100754.59
2022-11-07T07:23:38.666Z,100756.06
2022-11-07T07:26:05.369Z,100756.75
2022-11-07T07:28:31.692Z,100764.56
2022-11-07T07:31:12.915Z,100765.13
2022-11-07T07:33:39.285Z,100767.91
2022-11-07T07:36:05.826Z,100759.38
2022-11-07T07:38:32.153Z,100766.03
2022-11-07T07:40:58.767Z,100761.75
2022-11-07T07:43:25.570Z,100766.19
2022-11-07T07:45:51.891Z,100758.31
2022-11-07T07:48:18.200Z,100759.03
2022-11-07T07:50:44.525Z,100745.38
2022-11-07T07:53:10.873Z,100753.28
2022-11-07T07:55:37.205Z,100754.69
2022-11-07T07:58:03.519Z,100750.31
2022-11-07T08:00:29.834Z,100752.44
2022-11-07T08:03:02.795Z,100753.19
2022-11-07T08:05:29.114Z,100767.66
2022-11-07T08:07:55.501Z,100767.03
2022-11-07T08:13:08.118Z,100764.78
2022-11-07T08:15:34.445Z,100764.16
2022-11-07T08:18:02.038Z,100764.16
2022-11-07T08:20:28.365Z,100766.38
2022-11-07T08:23:01.572Z,100771.47
2022-11-07T08:25:27.909Z,100771.47
2022-11-07T08:27:54.225Z,100773.63
2022-11-07T08:30:20.541Z,100769.38
2022-11-07T08:32:47.428Z,100770.09
2022-11-07T08:35:13.834Z,100770.03
2022-11-07T08:37:40.145Z,100779.41
2022-11-07T08:40:06.769Z,100769.38
2022-11-07T08:42:33.080Z,100786.66
2022-11-07T08:44:59.389Z,100776.50
2022-11-07T08:47:26.762Z,100785.16
2022-11-07T08:49:53.074Z,100780.13
2022-11-07T08:52:19.387Z,100782.28
2022-11-07T08:54:45.701Z,100779.41
2022-11-07T08:57:12.027Z,100790.91
2022-11-07T08:59:38.387Z,100780.00
2022-11-07T09:02:47.304Z,100786.66
2022-11-07T09:04:51.046Z,100777.91
2022-11-07T09:07:17.437Z,100783.09
2022-11-07T09:09:43.749Z,100786.66
2022-11-07T09:12:10.056Z,100791.66
2022-11-07T09:14:36.371Z,100793.78
2022-11-07T09:17:02.753Z,100793.78
2022-11-07T09:19:29.069Z,100792.41
2022-11-07T09:21:56.126Z,100790.91
2022-11-07T09:24:22.443Z,100798.91
2022-11-07T09:26:48.756Z,100797.50
2022-11-07T09:29:15.097Z,100786.66
2022-11-07T09:31:41.419Z,100793.78
2022-11-07T09:34:07.724Z,100793.16
2022-11-07T09:36:34.038Z,100799.56
2022-11-07T09:39:01.048Z,100798.06
2022-11-07T09:41:35.390Z,100793.69
2022-11-07T09:44:05.103Z,100795.00
2022-11-07T09:46:43.543Z,100797.97
2022-11-07T09:49:15.265Z,100786.38
2022-11-07T09:51:46.561Z,100800.78
2022-11-07T09:54:17.386Z,100805.03
2022-11-07T09:56:43.890Z,100801.50
2022-11-07T09:59:16.254Z,100804.72
2022-11-07T10:01:42.804Z,100797.81
2022-11-07T10:04:27.524Z,100801.91
2022-11-07T10:07:02.005Z,100810.56
2022-11-07T10:09:31.855Z,100795.34
2022-11-07T10:12:04.252Z,100803.56
2022-11-07T10:14:34.530Z,100800.78
2022-11-07T10:17:17.555Z,100799.34
2022-11-07T10:19:47.604Z,100806.69
2022-11-07T10:22:13.854Z,100807.47
2022-11-07T10:24:46.448Z,100805.94
2022-11-07T10:27:12.772Z,100808.19
2022-11-07T10:29:44.989Z,100811.09
2022-11-07T10:32:27.896Z,100808.19
2022-11-07T10:34:56.830Z,100809.69
2022-11-07T10:37:23.148Z,100803.94
2022-11-07T10:39:49.453Z,100803.94
2022-11-07T10:42:16.833Z,100806.88
2022-11-07T10:44:43.164Z,100799.66
2022-11-07T10:47:19.440Z,100794.53
2022-11-07T10:49:56.251Z,100806.69
2022-11-07T10:52:22.629Z,100801.72
2022-11-07T10:54:48.996Z,100798.91
2022-11-07T10:57:19.098Z,100797.41
2022-11-07T10:59:46.448Z,100793.78
2022-11-07T11:02:17.194Z,100788.13
2022-11-07T11:04:50.709Z,100789.53
2022-11-07T11:07:17.549Z,100783.00
2022-11-07T11:09:50.428Z,100792.41
2022-11-07T11:12:16.760Z,100788.03
2022-11-07T11:14:43.081Z,100792.41
2022-11-07T11:17:21.201Z,100784.41
2022-11-07T11:19:54.148Z,100789.41
2022-11-07T11:22:23.900Z,100790.91
2022-11-07T11:25:03.573Z,100789.16
2022-11-07T11:27:30.589Z,100780.53
2022-11-07T11:30:07.682Z,100787.31
2022-11-07T11:32:39.069Z,100789.41
2022-11-07T11:35:13.781Z,100792.41
2022-11-07T11:37:41.315Z,100793.88
2022-11-07T11:40:08.581Z,100792.41
2022-11-07T11:42:48.857Z,100785.31
2022-11-07T11:45:19.995Z,100792.56
2022-11-07T11:47:47.796Z,100790.44
2022-11-07T11:50:16.714Z,100789.03
2022-11-07T11:52:43.036Z,100779.75
2022-11-07T11:55:15.979Z,100775.28
2022-11-07T11:57:46.874Z,100775.28
2022-11-07T12:00:13.107Z,100781.03
2022-11-07T12:02:43.148Z,100781.63
2022-11-07T12:05:21.645Z,100776.59
2022-11-07T12:07:50.744Z,100772.31
2022-11-07T12:10:28.801Z,100770.19
2022-11-07T12:13:09.796Z,100775.13
2022-11-07T12:15:44.635Z,100768.50
2022-11-07T12:18:14.531Z,100776.41
2022-11-07T12:20:45.507Z,100772.91
2022-11-07T12:23:34.346Z,100778.66
2022-11-07T12:26:11.909Z,100776.50
2022-11-07T12:28:44.214Z,100780.00
2022-11-07T12:31:14.431Z,100778.66
2022-11-07T12:33:59.987Z,100776.41
2022-11-07T12:36:34.042Z,100780.69
2022-11-07T12:39:19.077Z,100779.19
2022-11-07T12:41:49.090Z,100783.50
2022-11-07T12:44:20.875Z,100782.00
2022-11-07T12:46:51.539Z,100782.66
2022-11-07T12:49:22.083Z,100792.03
2022-11-07T12:51:54.829Z,100789.91
2022-11-07T12:54:31.296Z,100777.56
2022-11-07T12:56:57.628Z,100780.53
2022-11-07T12:59:25.600Z,100786.28
2022-11-07T13:01:56.196Z,100781.84
2022-11-07T13:04:24.422Z,100783.31
2022-11-07T13:06:58.132Z,100789.72
2022-11-07T13:09:35.601Z,100790.47
2022-11-07T13:12:17.456Z,100790.47
2022-11-07T13:14:43.791Z,100781.16
2022-11-07T13:17:14.976Z,100779.69
2022-11-07T13:19:42.889Z,100786.09
2022-11-07T13:22:15.397Z,100792.59
2022-11-07T13:24:52.096Z,100785.38
2022-11-07T13:27:22.347Z,100788.16
2022-11-07T13:29:48.675Z,100788.91
2022-11-07T13:32:15.278Z,100787.44
2022-11-07T13:34:41.548Z,100788.91
2022-11-07T13:37:08.460Z,100788.16
2022-11-07T13:39:34.804Z,100793.19
2022-11-07T13:42:01.151Z,100790.22
2022-11-07T13:44:28.225Z,100793.09
2022-11-07T13:46:55.573Z,100787.53
2022-11-07T13:49:26.521Z,100791.78
2022-11-07T13:51:53.302Z,100794.56
2022-11-07T13:54:27.138Z,100794.47
2022-11-07T13:56:57.227Z,100788.72
2022-11-07T13:59:36.983Z,100788.00
2022-11-07T14:02:03.577Z,100789.31
2022-11-07T14:04:29.963Z,100786.53
2022-11-07T14:06:57.243Z,100788.81
2022-11-07T14:09:23.798Z,100798.94
2022-11-07T14:11:51.026Z,100793.09
2022-11-07T14:14:17.365Z,100793.75
2022-11-07T14:16:46.685Z,100784.38
2022-11-07T14:19:14.173Z,100790.03
2022-11-07T14:21:42.837Z,100778.53
2022-11-07T14:24:23.071Z,100784.28
2022-11-07T14:27:01.165Z,100773.50
2022-11-07T14:29:27.480Z,100774.19
2022-11-07T14:31:57.060Z,100784.19
2022-11-07T14:34:23.480Z,100778.44
2022-11-07T14:36:50.400Z,100779.19
2022-11-07T14:39:16.922Z,100765.44
2022-11-07T14:41:43.256Z,100772.69
2022-11-07T14:44:12.869Z,100782.72
2022-11-07T14:46:39.219Z,100770.47
2022-11-07T14:49:05.548Z,100774.75
2022-11-07T14:51:32.621Z,100764.72
2022-11-07T14:54:06.595Z,100768.50
2022-11-07T14:56:34.147Z,100759.03
2022-11-07T14:59:00.513Z,100761.91
2022-11-07T15:01:30.608Z,100767.00
2022-11-07T15:03:58.305Z,100765.53
2022-11-07T15:06:28.270Z,100768.34
2022-11-07T15:08:55.347Z,100764.03
2022-11-07T15:11:24.410Z,100768.34
2022-11-07T15:13:50.733Z,100758.28
2022-11-07T15:16:17.913Z,100766.84
2022-11-07T15:18:44.777Z,100778.34
2022-11-07T15:21:26.225Z,100773.34
2022-11-07T15:23:53.016Z,100775.38
2022-11-07T15:26:23.049Z,100773.34
2022-11-07T15:28:50.076Z,100778.34
2022-11-07T15:31:23.789Z,100777.63
2022-11-07T15:33:50.673Z,100782.00
2022-11-07T15:36:16.991Z,100779.13
2022-11-07T15:38:43.301Z,100777.63
2022-11-07T15:41:11.320Z,100779.69
2022-11-07T15:43:37.634Z,100785.44
2022-11-07T15:46:03.950Z,100784.03
2022-11-07T15:48:31.884Z,100781.91
2022-11-07T15:50:59.273Z,100791.19
2022-11-07T15:53:26.617Z,100782.56
2022-11-07T15:55:56.393Z,100791.19
2022-11-07T15:58:23.819Z,100786.91
2022-11-07T16:00:50.396Z,100791.19
2022-11-07T16:03:17.431Z,100789.72
2022-11-07T16:05:44.244Z,100795.31
2022-11-07T16:08:12.022Z,100789.53
2022-11-07T16:10:46.110Z,100792.44
2022-11-07T16:13:12.429Z,100796.03
2022-11-07T16:15:39.057Z,100796.03
2022-11-07T16:18:05.425Z,100793.16
2022-11-07T16:20:33.523Z,100785.25
2022-11-07T16:23:00.322Z,100790.94
2022-11-07T16:25:27.095Z,100796.78
2022-11-07T16:27:59.062Z,100804.03
2022-11-07T16:30:25.423Z,100802.44
2022-11-07T16:32:51.747Z,100792.50
2022-11-07T16:35:18.073Z,100795.31
2022-11-07T16:37:44.392Z,100802.44
2022-11-07T16:40:14.636Z,100801.06
2022-11-07T16:42:40.945Z,100799.56
2022-11-07T16:45:07.533Z,100799.56
2022-11-07T16:47:36.028Z,100803.94
2022-11-07T16:50:02.372Z,100809.78
2022-11-07T16:52:28.906Z,100801.97
2022-11-07T16:54:55.235Z,100804.19
2022-11-07T16:57:21.567Z,100808.56
2022-11-07T16:59:48.059Z,100810.13
2022-11-07T17:02:20.175Z,100807.97
2022-11-07T17:04:47.321Z,100811.63
2022-11-07T17:07:14.263Z,100819.50
2022-11-07T17:09:41.461Z,100825.34
2022-11-07T17:12:11.998Z,100824.59
2022-11-07T17:14:38.325Z,100827.56
2022-11-07T17:17:04.769Z,100831.84
2022-11-07T17:19:31.126Z,100819.59
2022-11-07T17:21:58.396Z,100823.13
2022-11-07T17:24:24.720Z,100835.81
2022-11-07T17:26:51.045Z,100829.22
2022-11-07T17:29:17.365Z,100833.34
2022-11-07T17:31:43.735Z,100848.38
2022-11-07T17:34:10.063Z,100836.31
2022-11-07T17:36:38.370Z,100844.66
2022-11-07T17:39:05.933Z,100840.56
2022-11-07T17:41:32.262Z,100854.72
2022-11-07T17:43:58.649Z,100850.44
2022-11-07T17:46:28.703Z,100847.47
2022-11-07T17:48:55.297Z,100846.00
2022-11-07T17:51:22.023Z,100853.13
2022-11-07T17:53:48.434Z,100859.66
2022-11-07T17:56:18.843Z,100857.41
2022-11-07T17:58:45.645Z,100860.38
2022-11-07T18:01:20.901Z,100853.81
2022-11-07T18:03:47.547Z,100861.78
2022-11-07T18:06:13.866Z,100855.28
2022-11-07T18:08:51.785Z,100860.28
2022-11-07T18:11:18.816Z,100864.00
2022-11-07T18:13:45.163Z,100860.28
2022-11-07T18:16:13.914Z,100867.47
2022-11-07T18:18:40.240Z,100864.75
2022-11-07T18:21:06.563Z,100862.53
2022-11-07T18:23:32.885Z,100869.03
2022-11-07T18:26:03.236Z,100876.09
2022-11-07T18:28:29.591Z,100863.72
2022-11-07T18:31:06.039Z,100869.59
2022-11-07T18:33:32.376Z,100873.28
2022-11-07T18:35:59.566Z,100867.53
2022-11-07T18:38:26.065Z,100861.78
2022-11-07T18:40:56.936Z,100858.88
2022-11-07T18:43:23.257Z,100858.81
2022-11-07T18:45:49.588Z,100867.53
2022-11-07T18:48:16.126Z,100856.19
2022-11-07T18:50:42.601Z,100867.53
2022-11-07T18:53:08.934Z,100867.53
2022-11-07T18:55:35.266Z,100861.78
2022-11-07T18:58:01.576Z,100860.47
2022-11-07T19:00:29.473Z,100863.28
2022-11-07T19:02:55.811Z,100867.63
2022-11-07T19:05:22.309Z,100862.53
2022-11-07T19:07:49.268Z,100865.50
2022-11-07T19:10:15.589Z,100863.28
2022-11-07T19:12:41.915Z,100866.78
2022-11-07T19:15:08.508Z,100866.06
2022-11-07T19:17:34.813Z,100874.06
2022-11-07T19:20:01.121Z,100873.28
2022-11-07T19:22:27.475Z,100874.69
2022-11-07T19:24:53.800Z,100873.28
2022-11-07T19:27:20.126Z,100869.66
2022-11-07T19:29:46.509Z,100876.09
2022-11-07T19:32:12.901Z,100876.84
2022-11-07T19:34:39.225Z,100881.88
2022-11-07T19:37:05.532Z,100877.28
2022-11-07T19:39:32.264Z,100870.34
2022-11-07T19:41:58.582Z,100877.47
2022-11-07T19:44:24.915Z,100876.84
2022-11-07T19:46:51.236Z,100875.34
2022-11-07T19:49:17.916Z,100876.75
2022-11-07T19:51:44.235Z,100878.88
2022-11-07T19:54:10.566Z,100874.59
2022-11-07T19:56:37.032Z,100871.81
2022-11-07T19:59:03.383Z,100877.56
2022-11-07T20:01:31.355Z,100867.72
2022-11-07T20:03:57.846Z,100876.25
2022-11-07T20:06:25.343Z,100881.28
2022-11-07T20:08:51.784Z,100871.81
2022-11-07T20:11:19.643Z,100886.84
2022-11-07T20:13:45.959Z,100878.88
2022-11-07T20:16:12.391Z,100883.88
2022-11-07T20:18:38.772Z,100880.19
2022-11-07T20:21:10.269Z,100885.38
2022-11-07T20:23:36.601Z,100886.84
2022-11-07T20:26:09.748Z,100886.13
2022-11-07T20:28:36.197Z,100894.84
2022-11-07T20:31:11.895Z,100897.81
2022-11-07T20:33:38.212Z,100899.13
2022-11-07T20:36:05.404Z,100900.78
2022-11-07T20:38:32.033Z,100907.28
2022-11-07T20:40:58.428Z,100900.06
2022-11-07T20:43:24.759Z,100905.06
2022-11-07T20:45:51.083Z,100908.59
2022-11-07T20:48:17.741Z,100912.31
2022-11-07T20:50:44.335Z,100908.22
2022-11-07T20:53:10.668Z,100912.50
2022-11-07T20:55:40.362Z,100916.19
2022-11-07T20:58:06.685Z,100906.06
2022-11-07T21:00:33.070Z,100909.69
2022-11-07T21:02:59.641Z,100910.34
2022-11-07T21:05:25.961Z,100913.97
2022-11-07T21:07:52.279Z,100916.19
2022-11-07T21:10:18.595Z,100919.72
2022-11-07T21:12:45.082Z,100916.94
2022-11-07T21:15:11.397Z,100919.72
2022-11-07T21:17:37.758Z,100916.84
2022-11-07T21:20:04.444Z,100913.22
2022-11-07T21:22:30.744Z,100909.63
2022-11-07T21:24:57.056Z,100915.28
2022-11-07T21:27:23.386Z,100908.75
2022-11-07T21:29:49.708Z,100910.25
2022-11-07T21:32:16.020Z,100912.41
2022-11-07T21:34:42.683Z,100916.66
2022-11-07T21:37:08.992Z,100913.78
2022-11-07T21:39:35.313Z,100909.69
2022-11-07T21:42:01.614Z,100903.75
2022-11-07T21:44:27.941Z,100903.75
2022-11-07T21:46:54.244Z,100905.06
2022-11-07T21:49:20.570Z,100916.56
2022-11-07T21:51:46.880Z,100916.56
2022-11-07T21:54:13.204Z,100910.81
2022-11-07T21:56:39.773Z,100915.09
2022-11-07T21:59:07.483Z,100914.38
2022-11-07T22:01:35.205Z,100915.75
2022-11-07T22:04:10.514Z,100909.16
2022-11-07T22:06:38.439Z,100919.28
2022-11-07T22:09:05.117Z,100914.28
2022-11-07T22:11:31.502Z,100919.19
2022-11-07T22:13:58.366Z,100900.44
2022-11-07T22:16:24.804Z,100901.16
2022-11-07T22:18:51.323Z,100910.47
2022-11-07T22:21:18.614Z,100916.31
2022-11-07T22:23:44.940Z,100909.06
2022-11-07T22:26:12.408Z,100909.81
2022-11-07T22:28:44.370Z,100906.19
2022-11-07T22:31:16.088Z,100915.50
2022-11-07T22:33:42.416Z,100899.59
2022-11-07T22:36:08.980Z,100906.19
2022-11-07T22:38:35.554Z,100897.47
2022-11-07T22:41:02.472Z,100913.34
2022-11-07T22:43:31.772Z,100908.97
2022-11-07T22:46:01.700Z,100913.25
2022-11-07T22:48:28.021Z,100900.25
2022-11-07T22:51:00.680Z,100903.22
2022-11-07T22:53:27.006Z,100900.25
2022-11-07T22:55:53.329Z,100890.88
2022-11-07T22:58:20.042Z,100903.13
2022-11-07T23:00:46.595Z,100905.25
2022-11-07T23:03:12.943Z,100911.50
2022-11-07T23:05:39.284Z,100910.59
2022-11-07T23:08:05.615Z,100904.34
2022-11-07T23:10:31.981Z,100904.53
2022-11-07T23:12:58.334Z,100908.97
2022-11-07T23:15:24.659Z,100904.53
2022-11-07T23:17:50.994Z,100905.25
2022-11-07T23:20:36.009Z,100911.59
2022-11-07T23:23:03.256Z,100898.69
2022-11-07T23:25:29.573Z,100902.88
2022-11-07T23:27:55.904Z,100905.75
2022-11-07T23:30:22.219Z,100897.13
2022-11-07T23:32:48.552Z,100897.13
2022-11-07T23:35:14.857Z,100902.88
2022-11-07T23:37:41.179Z,100900.00
2022-11-07T23:40:07.611Z,100890.63
2022-11-07T23:42:33.934Z,100899.16
2022-11-07T23:45:18.741Z,100902.03
2022-11-07T23:48:03.546Z,100897.13
2022-11-07T23:50:48.501Z,100888.38
2022-11-07T23:53:33.399Z,100895.63
2022-11-07T23:55:59.726Z,100893.50
2022-11-07T23:58:44.494Z,100891.16
